Back to Top


My Weather Underground Personal Weather Station Historical Data with Graphs...

Delerius Weather Station Historical Data
 
Daily Summary for September 02, 2026 Units:  English    Metric   Both
Daily Weekly Monthly Yearly
  Current: High: Low: Average:
Temperature: 60.1 °F 61.2 °F 57 °F 59 °F
Dew Point: 55.9 °F 55.9 °F 54 °F 54.5 °F
Humidity: 86% 90% 78% 85%
Wind Speed: 11.4mph 12.4mph 7.3mph 10mph
Wind Gust: 18mph 18mph - -
WindSW - - SW
Pressure: 30.1 in 30.1 in 30.1 in -
Precipitation: 0 in      
 
 
Tabular Data for September 02, 2026
Time Temperature Dew Point Pressure Wind Wind Speed Wind Gust Humidity Rainfall Rate (Hourly) solar
00:04 61.2 °F 54.1 °F 30.1 in WSW 8.9 mph 12 mph 78% 0 in 0 W/m2
00:09 61 °F 54.1 °F 30.1 in WSW 9 mph 12 mph 78% 0 in 0 W/m2
00:14 61 °F 54 °F 30.1 in SW 9 mph 12 mph 78% 0 in 0 W/m2
00:19 61 °F 54.1 °F 30.1 in SW 9 mph 13 mph 78.4% 0 in 0 W/m2
00:24 61 °F 54.3 °F 30.1 in SW 9 mph 13 mph 79% 0 in 0 W/m2
00:29 60.8 °F 54.3 °F 30.1 in SW 9 mph 13 mph 79% 0 in 0 W/m2
00:34 60.6 °F 54.1 °F 30.1 in SW 8.4 mph 13 mph 79.4% 0 in 0 W/m2
00:39 60.6 °F 54.3 °F 30.1 in SW 8 mph 13 mph 80% 0 in 0 W/m2
00:44 60.6 °F 54.5 °F 30.1 in SW 8.3 mph 13 mph 80% 0 in 0 W/m2
00:49 60.6 °F 54.5 °F 30.1 in SW 9 mph 13 mph 80% 0 in 0 W/m2
00:54 60.6 °F 54.5 °F 30.1 in SW 9 mph 13 mph 80% 0 in 0 W/m2
00:59 60.6 °F 54.5 °F 30.1 in SW 9 mph 13 mph 80% 0 in 0 W/m2
01:04 60.8 °F 54.5 °F 30.1 in SW 9.5 mph 16 mph 80% 0 in 0 W/m2
01:09 60.8 °F 54.7 °F 30.1 in SW 10.7 mph 16 mph 80% 0 in 0 W/m2
01:14 60.6 °F 54.5 °F 30.1 in SW 10.4 mph 16 mph 80% 0 in 0 W/m2
01:19 60.6 °F 54.7 °F 30.1 in SW 10 mph 14 mph 81% 0 in 0 W/m2
01:24 60.6 °F 54.7 °F 30.1 in SW 10.9 mph 15 mph 81% 0 in 0 W/m2
01:29 60.6 °F 54.5 °F 30.1 in SW 11 mph 16 mph 80.6% 0 in 0 W/m2
01:34 60.4 °F 54.5 °F 30.1 in SW 9.5 mph 16 mph 81% 0 in 0 W/m2
01:39 60.3 °F 54.3 °F 30.1 in SW 7.5 mph 16 mph 81% 0 in 0 W/m2
01:44 60.3 °F 54.7 °F 30.1 in SW 7.3 mph 13 mph 81.8% 0 in 0 W/m2
01:49 60.3 °F 54.3 °F 30.1 in SW 8.6 mph 13 mph 81% 0 in 0 W/m2
01:54 60.1 °F 54.5 °F 30.1 in SW 9 mph 13 mph 82% 0 in 0 W/m2
01:59 59.9 °F 54.5 °F 30.1 in SW 9 mph 13 mph 82% 0 in 0 W/m2
02:04 59.9 °F 54.3 °F 30.1 in SW 9.6 mph 13 mph 82% 0 in 0 W/m2
02:09 59.7 °F 54.3 °F 30.1 in SW 10.3 mph 14 mph 82% 0 in 0 W/m2
02:14 59.7 °F 54.3 °F 30.1 in SW 10.4 mph 14 mph 82.6% 0 in 0 W/m2
02:19 59.5 °F 54.3 °F 30.1 in SW 10 mph 14 mph 83% 0 in 0 W/m2
02:24 59.7 °F 54.5 °F 30.1 in SW 10 mph 15 mph 83% 0 in 0 W/m2
02:29 59.7 °F 54.5 °F 30.1 in SW 10.7 mph 15 mph 83% 0 in 0 W/m2
02:34 59.7 °F 54.5 °F 30.1 in SW 11 mph 15 mph 83% 0 in 0 W/m2
02:39 59.7 °F 54.5 °F 30.1 in SW 11 mph 15 mph 83% 0 in 0 W/m2
02:44 59.5 °F 54.5 °F 30.1 in SW 11 mph 15 mph 83% 0 in 0 W/m2
02:49 59.5 °F 54.3 °F 30.1 in SW 10.6 mph 14 mph 83% 0 in 0 W/m2
02:54 59.4 °F 54.3 °F 30.1 in SW 10 mph 14 mph 83% 0 in 0 W/m2
02:59 59.4 °F 54.3 °F 30.1 in SW 10 mph 13 mph 83.6% 0 in 0 W/m2
03:04 59.2 °F 54.3 °F 30.1 in SW 10 mph 14 mph 84% 0 in 0 W/m2
03:09 59.2 °F 54.3 °F 30.1 in SW 10 mph 15 mph 84% 0 in 0 W/m2
03:14 59.2 °F 54.3 °F 30.1 in SW 10.4 mph 15 mph 84% 0 in 0 W/m2
03:19 59.2 °F 54.3 °F 30.1 in SW 10.9 mph 15 mph 84% 0 in 0 W/m2
03:24 59.2 °F 54.5 °F 30.1 in SW 11 mph 15 mph 84.4% 0 in 0 W/m2
03:29 59 °F 54.3 °F 30.1 in SW 11 mph 14 mph 84.4% 0 in 0 W/m2
03:34 59 °F 54.5 °F 30.1 in SW 11 mph 14 mph 85% 0 in 0 W/m2
03:39 59 °F 54.5 °F 30.1 in SW 11 mph 15 mph 85% 0 in 0 W/m2
03:44 58.8 °F 54.7 °F 30.1 in SW 11.6 mph 15 mph 85.8% 0 in 0 W/m2
03:49 58.8 °F 54.7 °F 30.1 in SW 12 mph 15 mph 86% 0 in 0 W/m2
03:54 58.8 °F 54.5 °F 30.1 in SW 11.2 mph 15 mph 86% 0 in 0 W/m2
03:59 58.6 °F 54.5 °F 30.1 in SW 10.2 mph 16 mph 86.4% 0 in 0 W/m2
04:04 58.8 °F 54.7 °F 30.1 in SW 11 mph 16 mph 86.2% 0 in 0 W/m2
04:09 58.6 °F 54.9 °F 30.1 in SW 10.9 mph 16 mph 87% 0 in 0 W/m2
04:14 58.6 °F 54.7 °F 30.1 in SW 10.2 mph 14 mph 87% 0 in 0 W/m2
04:19 58.6 °F 54.7 °F 30.1 in SW 10 mph 13 mph 87% 0 in 0 W/m2
04:24 58.5 °F 54.5 °F 30.1 in SW 10 mph 13 mph 87% 0 in 0 W/m2
04:29 58.5 °F 54.5 °F 30.1 in SW 10 mph 16 mph 87% 0 in 0 W/m2
04:34 58.3 °F 54.3 °F 30.1 in SW 10 mph 16 mph 87% 0 in 0 W/m2
04:39 58.1 °F 54.3 °F 30.1 in SW 9.6 mph 16 mph 87.2% 0 in 0 W/m2
04:44 58.1 °F 54.5 °F 30.1 in SW 9 mph 14 mph 88% 0 in 0 W/m2
04:49 57.9 °F 54.5 °F 30.1 in SW 9 mph 13 mph 88% 0 in 0 W/m2
04:54 57.7 °F 54.3 °F 30.1 in SW 9 mph 13 mph 88% 0 in 0 W/m2
04:59 57.7 °F 54.1 °F 30.1 in SW 9 mph 13 mph 88% 0 in 0 W/m2
05:04 57.6 °F 54.1 °F 30.1 in SSW 9.8 mph 13 mph 88% 0 in 0 W/m2
05:09 57.6 °F 54.1 °F 30.1 in SSW 10 mph 13 mph 88.6% 0 in 0 W/m2
05:14 57.6 °F 54.3 °F 30.1 in SSW 9.3 mph 13 mph 89% 0 in 0 W/m2
05:19 57.4 °F 54.1 °F 30.1 in SSW 9 mph 12 mph 89% 0 in 0 W/m2
05:24 57.4 °F 54.1 °F 30.1 in SSW 9 mph 12 mph 89% 0 in 0 W/m2
05:29 57.4 °F 54.1 °F 30.1 in SW 9 mph 12 mph 89% 0 in 0 W/m2
05:34 57.4 °F 54.1 °F 30.1 in SW 9 mph 12 mph 89% 0 in 0 W/m2
05:39 57.2 °F 54.1 °F 30.1 in SW 8.6 mph 12 mph 89% 0 in 0 W/m2
05:44 57.2 °F 54 °F 30.1 in SW 8.9 mph 15 mph 89% 0 in 0 W/m2
05:49 57.2 °F 54 °F 30.1 in SW 9.9 mph 15 mph 89% 0 in 0 W/m2
05:54 57.4 °F 54.1 °F 30.1 in SW 10 mph 15 mph 89% 0 in 0 W/m2
05:59 57.4 °F 54.1 °F 30.1 in SW 9.9 mph 14 mph 89% 0 in 0 W/m2
06:04 57.2 °F 54.1 °F 30.1 in SSW 8.6 mph 14 mph 89% 0 in 0 W/m2
06:09 57.2 °F 54 °F 30.1 in SSW 8.3 mph 13 mph 89% 0 in 9 W/m2
06:14 57 °F 54.1 °F 30.1 in SSW 9.3 mph 13 mph 89.8% 0 in 14 W/m2
06:19 57 °F 54.1 °F 30.1 in SSW 10.1 mph 14 mph 90% 0 in 16 W/m2
06:24 57 °F 54.1 °F 30.1 in SSW 11 mph 14 mph 90% 0 in 18 W/m2
06:29 57 °F 54.1 °F 30.1 in SSW 11 mph 15 mph 90% 0 in 19 W/m2
06:34 57.2 °F 54.1 °F 30.1 in SSW 11 mph 15 mph 90% 0 in 25 W/m2
06:39 57.2 °F 54.3 °F 30.1 in SW 11 mph 15 mph 90% 0 in 33 W/m2
06:44 57.4 °F 54.5 °F 30.1 in SW 11 mph 16 mph 89.8% 0 in 39 W/m2
06:49 57.6 °F 54.3 °F 30.1 in SW 11 mph 16 mph 89% 0 in 40 W/m2
06:54 57.6 °F 54.5 °F 30.1 in SW 11 mph 16 mph 89% 0 in 40 W/m2
06:59 57.7 °F 54.5 °F 30.1 in SW 10.6 mph 14 mph 89% 0 in 60 W/m2
07:04 57.7 °F 54.7 °F 30.1 in SSW 11 mph 14 mph 89% 0 in 97 W/m2
07:09 57.9 °F 54.7 °F 30.1 in SSW 10.4 mph 14 mph 89% 0 in 97 W/m2
07:14 58.1 °F 54.9 °F 30.1 in SW 9.3 mph 13 mph 89% 0 in 100 W/m2
07:19 58.3 °F 54.9 °F 30.1 in SSW 9 mph 12 mph 88.4% 0 in 107 W/m2
07:24 58.5 °F 55 °F 30.1 in SSW 9.6 mph 13 mph 88% 0 in 107 W/m2
07:29 58.6 °F 55.2 °F 30.1 in SW 10 mph 13 mph 88% 0 in 77 W/m2
07:34 58.6 °F 55.2 °F 30.1 in SW 9.1 mph 13 mph 88% 0 in 86 W/m2
07:39 58.8 °F 55.2 °F 30.1 in SW 8.1 mph 11 mph 88% 0 in 95 W/m2
07:44 58.8 °F 55 °F 30.1 in SW 8.1 mph 11 mph 87.4% 0 in 123 W/m2
07:49 59 °F 55 °F 30.1 in SW 9 mph 13 mph 87% 0 in 142 W/m2
07:54 59.2 °F 55.4 °F 30.1 in SW 9.9 mph 14 mph 87% 0 in 221 W/m2
07:59 59.5 °F 55.6 °F 30.1 in SW 10 mph 16 mph 86.8% 0 in 214 W/m2
08:04 59.9 °F 55.8 °F 30.1 in SW 10.9 mph 16 mph 86% 0 in 181 W/m2
08:09 60.1 °F 55.6 °F 30.1 in SW 11.6 mph 16 mph 85% 0 in 135 W/m2
08:14 60.1 °F 55.6 °F 30.1 in SW 11.1 mph 15 mph 85% 0 in 135 W/m2
08:19 59.7 °F 55.2 °F 30.1 in SW 11.3 mph 15 mph 85% 0 in 139 W/m2
08:24 59.5 °F 55.4 °F 30.1 in SW 12 mph 16 mph 86% 0 in 139 W/m2
08:29 59.7 °F 55.4 °F 30.1 in SW 12 mph 18 mph 86% 0 in 144 W/m2
08:34 59.7 °F 55.4 °F 30.1 in SW 12.2 mph 18 mph 86% 0 in 149 W/m2
08:39 59.7 °F 55.6 °F 30.1 in SW 12.4 mph 18 mph 86% 0 in 156 W/m2
08:44 59.9 °F 55.8 °F 30.1 in SW 12 mph 16 mph 86% 0 in 156 W/m2
08:49 59.9 °F 55.8 °F 30.1 in SW 11.8 mph 16 mph 86% 0 in 172 W/m2
08:54 59.9 °F 55.8 °F 30.1 in SW 11.6 mph 18 mph 85.8% 0 in 156 W/m2
08:59 60.1 °F 55.9 °F 30.1 in SW 11.4 mph 18 mph 86% 0 in 158 W/m2
North Lincolnshire Weather
Compliments of Weather Underground - 2 mb

Data updates at regular intervals.